Time;durP1;ratioP1;P1;durP2;ratioP2;P2;SDS_P1;SDS_P2;PMS_P1;PMS_P2;Temp;Humidity;BMP_temperature;BMP_pressure;BME280_temperature;BME280_humidity;BME280_pressure;Samples;Min_cycle;Max_cycle;Signal;HPM_P1;HPM_P2
2023/02/24 00:02:22;;;;;;;1999.90;999.90;;;;;;;3.07;100.00;97678.69;5093016;28;20080;-76
2023/02/24 00:04:51;;;;;;;1999.90;999.90;;;;;;;3.02;100.00;97678.66;5093088;28;20089;-75
2023/02/24 00:07:17;;;;;;;1999.90;999.90;;;;;;;3.13;100.00;97676.88;5093073;28;20563;-75
2023/02/24 00:09:45;;;;;;;1999.90;999.90;;;;;;;3.14;100.00;97675.78;5093319;28;20028;-74
2023/02/24 00:12:13;;;;;;;1999.90;999.90;;;;;;;3.22;100.00;97681.56;5093598;28;20484;-74
2023/02/24 00:14:41;;;;;;;1999.90;999.90;;;;;;;3.21;100.00;97673.72;5092731;28;20039;-75
2023/02/24 00:17:07;;;;;;;1999.90;999.90;;;;;;;3.14;100.00;97673.09;5092782;28;20036;-76
2023/02/24 00:19:32;;;;;;;1999.90;999.90;;;;;;;3.09;100.00;97673.06;5092618;28;20031;-75
2023/02/24 00:21:59;;;;;;;1999.90;999.90;;;;;;;3.02;100.00;97657.03;5092663;28;20024;-75
2023/02/24 00:24:25;;;;;;;1999.90;999.90;;;;;;;3.17;100.00;97672.59;5092155;28;20446;-75
2023/02/24 00:26:56;;;;;;;1999.90;999.90;;;;;;;3.10;100.00;97658.47;5094881;28;20471;-75
2023/02/24 00:29:22;;;;;;;1999.90;999.90;;;;;;;3.15;100.00;97670.16;5092932;28;20098;-75
2023/02/24 00:31:57;;;;;;;1999.90;999.90;;;;;;;3.18;100.00;97669.63;5092603;28;20476;-76
2023/02/24 00:34:24;;;;;;;1999.90;999.90;;;;;;;3.21;100.00;97669.13;5092270;28;20028;-76
2023/02/24 00:36:49;;;;;;;1999.90;999.90;;;;;;;3.21;100.00;97660.19;5092684;28;20484;-75
2023/02/24 00:39:14;;;;;;;1999.90;999.90;;;;;;;3.06;100.00;97641.16;5093110;28;20024;-76
2023/02/24 00:41:42;;;;;;;1999.90;999.90;;;;;;;3.15;100.00;97659.34;5092037;28;20024;-76
2023/02/24 00:44:10;;;;;;;1999.90;999.90;;;;;;;3.08;100.00;97650.63;5093304;28;20059;-76
2023/02/24 00:46:41;;;;;;;1999.90;999.90;;;;;;;3.01;100.00;97641.91;5093276;28;20032;-75
2023/02/24 00:49:11;;;;;;;1999.90;999.90;;;;;;;3.03;100.00;97661.38;5092800;28;20052;-75
2023/02/24 00:51:40;;;;;;;1999.90;999.90;;;;;;;3.06;100.00;97666.28;5092434;28;20115;-75
2023/02/24 00:54:06;;;;;;;1999.90;999.90;;;;;;;2.90;100.00;97642.06;5091932;28;20035;-76
2023/02/24 00:56:31;;;;;;;1999.90;999.90;;;;;;;2.93;100.00;97657.75;5092556;28;20028;-76
2023/02/24 00:58:58;;;;;;;1999.90;999.90;;;;;;;2.87;100.00;97666.88;5094233;28;20031;-78
2023/02/24 01:01:31;;;;;;;1999.90;999.90;;;;;;;2.95;100.00;97655.59;5094457;28;20031;-75
2023/02/24 01:03:56;;;;;;;1999.90;999.90;;;;;;;2.89;100.00;97652.03;5092418;28;20031;-76
2023/02/24 01:06:25;;;;;;;1999.90;999.90;;;;;;;2.95;100.00;97664.53;5092328;28;20385;-76
2023/02/24 01:08:52;;;;;;;1999.90;999.90;;;;;;;2.96;100.00;97654.53;5092932;28;20040;-76
2023/02/24 01:12:16;;;;;;;1999.90;999.90;;;;;;;2.74;100.00;97632.97;5092221;28;20036;-75
2023/02/24 01:14:24;;;;;;;1999.90;999.90;;;;;;;2.81;100.00;97644.41;5091566;28;20040;-76
2023/02/24 01:16:49;;;;;;;1999.90;999.90;;;;;;;2.60;100.00;97624.44;5092048;28;20494;-76
2023/02/24 01:19:17;;;;;;;1999.90;999.90;;;;;;;2.62;100.00;97637.69;5092026;28;20032;-76
2023/02/24 01:21:43;;;;;;;1999.90;999.90;;;;;;;2.59;100.00;97654.41;5091951;28;20024;-76
2023/02/24 01:24:09;;;;;;;1999.90;999.90;;;;;;;2.53;100.00;97644.59;5091931;28;20392;-76
2023/02/24 01:26:35;;;;;;;1999.90;999.90;;;;;;;2.46;100.00;97649.38;5092633;28;20043;-76
2023/02/24 01:29:08;;;;;;;1999.90;999.90;;;;;;;2.53;100.00;97656.22;5094118;28;20024;-76
2023/02/24 01:31:37;;;;;;;1999.90;999.90;;;;;;;2.47;100.00;97629.44;5092292;28;20020;-76
2023/02/24 01:34:04;;;;;;;1999.90;999.90;;;;;;;2.60;100.00;97654.13;5090555;28;20027;-76
2023/02/24 01:36:31;;;;;;;1999.90;999.90;;;;;;;2.39;100.00;97632.53;5090209;28;20051;-75
2023/02/24 01:38:58;;;;;;;1999.90;999.90;;;;;;;2.33;100.00;97642.47;5091188;28;20028;-76
2023/02/24 01:41:26;;;;;;;1999.90;999.90;;;;;;;2.35;100.00;97643.03;5091108;28;20020;-78
2023/02/24 01:44:10;;;;;;;1999.90;999.90;;;;;;;2.46;100.00;97630.47;5091074;28;20028;-76
2023/02/24 01:46:38;;;;;;;1999.90;999.90;;;;;;;2.36;100.00;97616.84;5090472;28;20423;-76
2023/02/24 01:49:12;;;;;;;1999.90;999.90;;;;;;;2.59;100.00;97632.81;5090982;28;20016;-74
2023/02/24 01:51:48;;;;;;;1999.90;999.90;;;;;;;2.45;100.00;97610.78;5090911;28;20034;-77
2023/02/24 01:54:16;;;;;;;1999.90;999.90;;;;;;;2.65;100.00;97642.59;5089555;28;20392;-77
2023/02/24 01:56:46;;;;;;;1999.90;999.90;;;;;;;2.63;100.00;97634.72;5091237;28;20016;-76
2023/02/24 01:59:11;;;;;;;1999.90;999.90;;;;;;;2.52;100.00;97637.56;5090940;28;20024;-76
2023/02/24 02:01:41;;;;;;;1999.90;999.90;;;;;;;2.61;100.00;97634.16;5091286;28;20499;-76
2023/02/24 02:04:22;;;;;;;1999.90;999.90;;;;;;;2.54;100.00;97624.63;5072321;28;20032;-75
2023/02/24 02:06:47;;;;;;;1999.90;999.90;;;;;;;2.47;100.00;97629.44;5072729;28;20028;-76
2023/02/24 02:09:14;;;;;;;1999.90;999.90;;;;;;;2.53;100.00;97626.53;5070324;28;20433;-77
2023/02/24 02:11:41;;;;;;;1999.90;999.90;;;;;;;2.49;100.00;97616.47;5070419;28;20024;-75
2023/02/24 02:14:08;;;;;;;1999.90;999.90;;;;;;;2.47;100.00;97605.13;5070451;28;20032;-75
2023/02/24 02:16:45;;;;;;;1999.90;999.90;;;;;;;2.49;100.00;97632.66;5070493;28;20024;-76
2023/02/24 02:19:54;;;;;;;1999.90;999.90;;;;;;;2.42;100.00;97618.53;5070479;28;20455;-76
2023/02/24 02:22:58;;;;;;;1999.90;999.90;;;;;;;2.30;100.00;97626.78;5070397;28;20029;-76
2023/02/24 02:26:00;;;;;;;1999.90;999.90;;;;;;;2.32;100.00;97618.44;5070327;28;20039;-76
2023/02/24 02:28:54;;;;;;;1999.90;999.90;;;;;;;2.33;100.00;97617.34;5070640;28;20504;-74
2023/02/24 02:31:24;;;;;;;1999.90;999.90;;;;;;;2.28;100.00;97622.69;5102712;28;20035;-75
2023/02/24 02:34:14;;;;;;;1999.90;999.90;;;;;;;2.42;100.00;97618.53;5070371;28;20060;-74
2023/02/24 02:36:59;;;;;;;1999.90;999.90;;;;;;;2.25;100.00;97610.53;5070221;28;20128;-75
2023/02/24 02:40:01;;;;;;;1999.90;999.90;;;;;;;2.28;100.00;97614.59;5070183;28;20485;-76
2023/02/24 02:42:34;;;;;;;1999.90;999.90;;;;;;;2.28;100.00;97611.91;5070140;28;20548;-74
2023/02/24 02:45:09;;;;;;;1999.90;999.90;;;;;;;2.32;100.00;97610.34;5070276;28;20028;-75
2023/02/24 02:47:46;;;;;;;1999.90;999.90;;;;;;;2.20;100.00;97596.16;5071430;28;20389;-75
2023/02/24 02:50:17;;;;;;;1999.90;999.90;;;;;;;2.23;100.00;97603.72;5072417;28;20119;-76
2023/02/24 02:53:08;;;;;;;1999.90;999.90;;;;;;;2.23;100.00;97592.94;5070123;28;20035;-75
2023/02/24 02:55:44;;;;;;;1999.90;999.90;;;;;;;2.13;100.00;97599.84;5069869;28;20103;-76
2023/02/24 02:58:16;;;;;;;1999.90;999.90;;;;;;;2.20;100.00;97596.16;5073266;28;20029;-75
2023/02/24 03:00:57;;;;;;;1999.90;999.90;;;;;;;2.06;100.00;97580.34;5074236;28;20514;-76
2023/02/24 03:03:26;;;;;;;1999.90;999.90;;;;;;;2.17;100.00;97609.06;5073710;28;20390;-76
2023/02/24 03:05:59;;;;;;;1999.90;999.90;;;;;;;2.05;100.00;97600.28;5073694;28;20032;-74
2023/02/24 03:08:28;;;;;;;1999.90;999.90;;;;;;;1.87;100.00;97575.50;5073609;28;20540;-76
2023/02/24 03:10:59;;;;;;;1999.90;999.90;;;;;;;1.89;100.00;97597.63;5078906;28;20392;-75
2023/02/24 03:13:28;;;;;;;1999.90;999.90;;;;;;;1.81;100.00;97588.09;5094235;28;20036;-76
2023/02/24 03:15:58;;;;;;;1999.90;999.90;;;;;;;1.80;100.00;97586.47;5093897;28;20020;-75
2023/02/24 03:18:30;;;;;;;1999.90;999.90;;;;;;;1.94;100.00;97598.50;5093806;28;20039;-76
2023/02/24 03:21:11;;;;;;;1999.90;999.90;;;;;;;1.82;100.00;97592.41;5093801;28;20059;-75
2023/02/24 03:23:44;;;;;;;1999.90;999.90;;;;;;;1.79;100.00;97592.91;5093871;28;20020;-76
2023/02/24 03:26:32;;;;;;;1999.90;999.90;;;;;;;1.92;100.00;97589.03;5092145;28;20024;-76
2023/02/24 03:29:03;;;;;;;1999.90;999.90;;;;;;;1.76;100.00;97581.81;5096152;28;20019;-76
2023/02/24 03:31:44;;;;;;;1999.90;999.90;;;;;;;1.77;100.00;97591.53;5092955;28;20035;-77
2023/02/24 03:34:16;;;;;;;1999.90;999.90;;;;;;;1.78;100.00;97596.69;5117350;28;20073;-75
2023/02/24 03:36:43;;;;;;;1999.90;999.90;;;;;;;1.67;100.00;97600.28;5116440;28;20079;-75
2023/02/24 03:39:11;;;;;;;1999.90;999.90;;;;;;;1.64;100.00;97595.41;5116938;28;20024;-76
2023/02/24 03:41:56;;;;;;;1999.90;999.90;;;;;;;1.63;100.00;97601.03;5115142;28;20380;-75
2023/02/24 03:44:23;;;;;;;1999.90;999.90;;;;;;;1.71;100.00;97603.31;5114029;28;20027;-75
2023/02/24 03:46:50;;;;;;;1999.90;999.90;;;;;;;1.73;100.00;97596.59;5113811;28;20027;-75
2023/02/24 03:49:16;;;;;;;1999.90;999.90;;;;;;;1.75;100.00;97597.19;5113728;28;20034;-75
2023/02/24 03:51:58;;;;;;;1999.90;999.90;;;;;;;1.67;100.00;97610.25;5113480;28;20023;-75
2023/02/24 03:54:54;;;;;;;1999.90;999.90;;;;;;;1.71;100.00;97606.00;5113987;27;20051;-76
2023/02/24 03:57:53;;;;;;;;;;;;;;;1.59;100.00;97611.50;5112890;28;20035;-75
2023/02/24 04:00:28;;;;;;;1999.90;999.90;;;;;;;1.45;100.00;97604.81;5113386;28;19920;-75
2023/02/24 04:03:35;;;;;;;1999.90;999.90;;;;;;;1.49;100.00;97598.69;5113316;28;20367;-75
2023/02/24 04:06:10;;;;;;;1999.90;999.90;;;;;;;1.51;100.00;97606.50;5098608;28;20039;-76
2023/02/24 04:09:03;;;;;;;1999.90;999.90;;;;;;;1.49;100.00;97590.59;5111232;28;20067;-75
2023/02/24 04:12:12;;;;;;;1999.90;999.90;;;;;;;1.46;100.00;97598.34;5113059;28;20043;-76
2023/02/24 04:14:55;;;;;;;1999.90;999.90;;;;;;;1.59;100.00;97595.31;5104191;28;20035;-76
2023/02/24 04:17:37;;;;;;;1999.90;999.90;;;;;;;1.79;100.00;97595.59;5113095;28;20125;-75
2023/02/24 04:20:19;;;;;;;1999.90;999.90;;;;;;;1.74;100.00;97598.25;5113034;28;20032;-76
2023/02/24 04:22:48;;;;;;;1999.90;999.90;;;;;;;1.64;100.00;97592.69;5113006;28;20031;-75
2023/02/24 04:25:18;;;;;;;1999.90;999.90;;;;;;;1.60;100.00;97584.28;5112977;28;20019;-75
2023/02/24 04:27:46;;;;;;;1999.90;999.90;;;;;;;1.64;100.00;97587.31;5113387;27;20027;-74
2023/02/24 04:30:12;;;;;;;1999.90;999.90;;;;;;;1.67;100.00;97584.13;5112915;28;20027;-75
2023/02/24 04:32:41;;;;;;;1999.90;999.90;;;;;;;1.67;100.00;97584.13;5112749;28;20020;-75
2023/02/24 04:35:11;;;;;;;1999.90;999.90;;;;;;;1.63;100.00;97584.88;5111595;28;20030;-75
2023/02/24 04:37:43;;;;;;;1999.90;999.90;;;;;;;1.61;100.00;97577.84;5114273;28;20491;-78
2023/02/24 04:40:20;;;;;;;1999.90;999.90;;;;;;;1.67;100.00;97569.81;5113307;28;20031;-74
2023/02/24 04:42:47;;;;;;;1999.90;999.90;;;;;;;1.61;100.00;97563.53;5095064;28;20166;-76
2023/02/24 04:45:18;;;;;;;1999.90;999.90;;;;;;;1.61;100.00;97560.84;5085125;28;20016;-76
2023/02/24 04:47:51;;;;;;;1999.90;999.90;;;;;;;1.67;100.00;97577.91;5090610;28;20114;-75
2023/02/24 04:50:21;;;;;;;1999.90;999.90;;;;;;;1.60;100.00;97562.72;5072561;28;20753;-75
2023/02/24 04:52:55;;;;;;;1999.90;999.90;;;;;;;1.61;100.00;97564.38;5070124;28;20040;-75
2023/02/24 04:55:25;;;;;;;1999.90;999.90;;;;;;;1.70;100.00;97577.41;5071543;28;20033;-76
2023/02/24 04:58:00;;;;;;;1999.90;999.90;;;;;;;1.60;100.00;97572.69;5072019;28;20067;-75
2023/02/24 05:00:32;;;;;;;1999.90;999.90;;;;;;;1.61;100.00;97566.25;5077202;28;20489;-74
2023/02/24 05:03:00;;;;;;;1999.90;999.90;;;;;;;1.57;100.00;97565.09;5091339;28;20089;-74
2023/02/24 05:05:26;;;;;;;1999.90;999.90;;;;;;;1.49;100.00;97568.22;5091650;28;20024;-74
2023/02/24 05:07:53;;;;;;;1999.90;999.90;;;;;;;1.56;100.00;97567.00;5091339;28;20054;-74
2023/02/24 05:10:19;;;;;;;1999.90;999.90;;;;;;;1.30;100.00;97531.84;5091272;28;20032;-75
2023/02/24 05:12:44;;;;;;;1999.90;999.90;;;;;;;1.42;100.00;97560.31;5089710;28;20023;-76
2023/02/24 05:15:13;;;;;;;1999.90;999.90;;;;;;;1.14;100.00;97511.13;5090183;28;20039;-76
2023/02/24 05:17:40;;;;;;;1999.90;999.90;;;;;;;1.31;100.00;97553.16;5091516;28;20048;-75
2023/02/24 05:22:51;;;;;;;1999.90;999.90;;;;;;;1.19;100.00;97540.84;5091508;28;20026;-75
2023/02/24 05:25:18;;;;;;;1999.90;999.90;;;;;;;1.16;100.00;97541.31;5091441;28;20411;-76
2023/02/24 05:27:45;;;;;;;1999.90;999.90;;;;;;;1.05;100.00;97530.38;5091528;28;20027;-76
2023/02/24 05:30:11;;;;;;;1999.90;999.90;;;;;;;1.11;100.00;97522.38;5091182;28;20119;-75
2023/02/24 05:32:37;;;;;;;1999.90;999.90;;;;;;;1.05;100.00;97527.69;5090868;28;20484;-76
2023/02/24 05:35:04;;;;;;;1999.90;999.90;;;;;;;1.19;100.00;97540.84;5091030;28;20030;-77
2023/02/24 05:37:30;;;;;;;1999.90;999.90;;;;;;;1.12;100.00;97529.41;5082267;28;20036;-76
2023/02/24 05:39:59;;;;;;;1999.90;999.90;;;;;;;1.13;100.00;97548.00;5092421;28;20503;-75
2023/02/24 05:42:24;;;;;;;1999.90;999.90;;;;;;;1.13;100.00;97555.28;5090710;28;20047;-74
2023/02/24 05:44:50;;;;;;;1999.90;999.90;;;;;;;1.18;100.00;97549.97;5091189;28;20476;-76
2023/02/24 05:47:18;;;;;;;1999.90;999.90;;;;;;;1.16;100.00;97541.31;5090751;28;20078;-76
2023/02/24 05:49:44;;;;;;;1999.90;999.90;;;;;;;1.12;100.00;97543.69;5091259;28;20024;-74
2023/02/24 05:52:10;;;;;;;1999.90;999.90;;;;;;;1.20;100.00;97553.22;5093779;28;20506;-74
2023/02/24 05:54:40;;;;;;;1999.90;999.90;;;;;;;1.10;100.00;97543.09;5090654;28;20036;-75
2023/02/24 05:57:20;;;;;;;1999.90;999.90;;;;;;;1.17;100.00;97551.84;5090540;28;20720;-76
2023/02/24 05:59:48;;;;;;;1999.90;999.90;;;;;;;1.29;100.00;97551.75;5091080;28;20020;-74
2023/02/24 06:02:15;;;;;;;1999.90;999.90;;;;;;;1.34;100.00;97555.34;5090536;28;20024;-74
2023/02/24 06:07:23;;;;;;;1999.90;999.90;;;;;;;1.18;100.00;97545.41;5090980;28;20039;-80
2023/02/24 06:09:55;;;;;;;1999.90;999.90;;;;;;;1.22;100.00;97546.56;5091387;28;20047;-75
2023/02/24 06:12:26;;;;;;;1999.90;999.90;;;;;;;1.20;100.00;97554.03;5090273;28;20024;-74
2023/02/24 06:14:51;;;;;;;1999.90;999.90;;;;;;;1.08;100.00;97551.44;5090443;28;20119;-75
2023/02/24 06:17:18;;;;;;;1999.90;999.90;;;;;;;1.21;100.00;97555.69;5089754;28;20062;-77
2023/02/24 06:19:48;;;;;;;1999.90;999.90;;;;;;;1.15;100.00;97545.91;5089347;28;20028;-78
2023/02/24 06:22:18;;;;;;;1999.90;999.90;;;;;;;1.28;100.00;97555.53;5088898;28;20032;-78
2023/02/24 06:24:44;;;;;;;1999.90;999.90;;;;;;;1.31;100.00;97555.03;5089660;28;20039;-75
2023/02/24 06:27:17;;;;;;;1999.90;999.90;;;;;;;1.39;100.00;97558.13;5088583;28;20024;-75
2023/02/24 06:29:50;;;;;;;1999.90;999.90;;;;;;;1.47;100.00;97564.97;5090529;28;20077;-76
2023/02/24 06:32:24;;;;;;;1999.90;999.90;;;;;;;1.48;100.00;97559.31;5091638;28;20143;-74
2023/02/24 06:34:53;;;;;;;1999.90;999.90;;;;;;;1.57;100.00;97571.31;5099343;28;20028;-77
2023/02/24 06:37:18;;;;;;;1999.90;999.90;;;;;;;1.22;100.00;97514.22;5114050;28;20051;-85
2023/02/24 06:39:46;;;;;;;1999.90;999.90;;;;;;;1.62;100.00;97562.50;5113872;28;20472;-86
2023/02/24 06:42:13;;;;;;;1999.90;999.90;;;;;;;1.72;100.00;97559.94;5109839;28;20056;-84
2023/02/24 06:44:40;;;;;;;1999.90;999.90;;;;;;;1.79;100.00;97565.94;5094462;28;20172;-74
2023/02/24 06:47:09;;;;;;;1999.90;999.90;;;;;;;1.63;100.00;97563.31;5092910;28;20020;-75
2023/02/24 06:49:35;;;;;;;1999.90;999.90;;;;;;;1.40;100.00;97565.13;5073904;28;20024;-73
2023/02/24 06:52:02;;;;;;;1999.90;999.90;;;;;;;1.57;100.00;97570.47;5074963;28;20017;-74
2023/02/24 06:54:29;;;;;;;1999.90;999.90;;;;;;;1.47;100.00;97556.88;5072291;28;20163;-74
2023/02/24 06:56:56;;;;;;;1999.90;999.90;;;;;;;1.65;100.00;97562.00;5072058;28;20021;-74
2023/02/24 06:59:27;;;;;;;1999.90;999.90;;;;;;;1.74;100.00;97565.06;5072157;28;20056;-73
2023/02/24 07:01:53;;;;;;;1999.90;999.90;;;;;;;1.87;100.00;97570.94;5074217;28;20552;-72
2023/02/24 07:04:19;;;;;;;1999.90;999.90;;;;;;;1.87;100.00;97565.53;5092275;28;20016;-73
2023/02/24 07:06:54;;;;;;;1999.90;999.90;;;;;;;2.02;100.00;97567.59;5091657;28;20026;-72
2023/02/24 07:09:23;;;;;;;1999.90;999.90;;;;;;;1.98;100.00;97548.41;5088524;28;20075;-74
2023/02/24 07:11:54;;;;;;;1999.90;999.90;;;;;;;2.08;100.00;97563.91;5090919;28;20040;-71
2023/02/24 07:14:25;;;;;;;1999.90;999.90;;;;;;;1.94;100.00;97560.75;5092270;28;20101;-72
2023/02/24 07:16:52;;;;;;;1999.90;999.90;;;;;;;1.94;100.00;97566.16;5091919;28;20031;-74
2023/02/24 07:19:31;;;;;;;1999.90;999.90;;;;;;;1.86;100.00;97547.72;5081075;28;20023;-75
2023/02/24 07:21:59;;;;;;;1999.90;999.90;;;;;;;1.95;100.00;97550.78;5092798;28;20089;-73
2023/02/24 07:24:31;;;;;;;1999.90;999.90;;;;;;;2.00;100.00;97549.00;5091246;28;20050;-73
2023/02/24 07:27:05;;;;;;;1999.90;999.90;;;;;;;2.12;100.00;97555.09;5092121;28;20012;-72
2023/02/24 07:29:34;;;;;;;1999.90;999.90;;;;;;;2.08;100.00;97548.56;5090617;28;20491;-73
2023/02/24 07:32:05;;;;;;;1999.90;999.90;;;;;;;2.21;100.00;97549.22;5091425;28;20036;-73
2023/02/24 07:34:32;;;;;;;1999.90;999.90;;;;;;;2.13;100.00;97551.28;5091796;28;20040;-73
2023/02/24 07:37:01;;;;;;;1999.90;999.90;;;;;;;2.28;100.00;97547.97;5092969;28;20035;-73
2023/02/24 07:39:27;;;;;;;1999.90;999.90;;;;;;;2.46;100.00;97544.13;5092580;28;20068;-73
2023/02/24 07:41:54;;;;;;;1999.90;999.90;;;;;;;2.44;100.00;97538.16;5092865;28;20103;-73
2023/02/24 07:44:21;;;;;;;1999.90;999.90;;;;;;;2.40;100.00;97534.34;5123997;27;20034;-75
2023/02/24 07:46:51;;;;;;;1999.90;999.90;;;;;;;2.43;100.00;97545.44;5091981;28;20642;-73
2023/02/24 07:49:19;;;;;;;1999.90;999.90;;;;;;;2.59;100.00;97536.44;5092492;28;20031;-73
2023/02/24 07:51:51;;;;;;;1999.90;999.90;;;;;;;2.57;100.00;97540.44;5093264;28;20047;-73
2023/02/24 07:54:20;;;;;;;1999.90;999.90;;;;;;;2.82;100.00;97535.28;5093558;28;20028;-73
2023/02/24 07:56:47;;;;;;;1999.90;999.90;;;;;;;2.75;100.00;97526.59;5086796;28;20055;-74
2023/02/24 07:59:18;;;;;;;1999.90;999.90;;;;;;;2.74;100.00;97519.56;5076048;28;20032;-74
2023/02/24 08:01:48;;;;;;;1999.90;999.90;;;;;;;2.78;100.00;97527.97;5073993;28;20024;-74
2023/02/24 08:04:16;;;;;;;1999.90;999.90;;;;;;;2.76;100.00;97525.50;5072490;28;20047;-74
2023/02/24 08:06:49;;;;;;;1999.90;999.90;;;;;;;2.87;100.00;97521.84;5072140;28;20134;-73
2023/02/24 08:09:19;;;;;;;1999.90;999.90;;;;;;;2.93;100.00;97514.59;5072157;28;20068;-73
2023/02/24 08:11:55;;;;;;;1999.90;999.90;;;;;;;2.97;100.00;97516.53;5072777;28;20397;-74
2023/02/24 08:14:25;;;;;;;1999.90;999.90;;;;;;;2.98;100.00;97507.34;5072992;28;20040;-74
2023/02/24 08:16:58;;;;;;;1999.90;999.90;;;;;;;3.03;100.00;97520.09;5072816;28;20119;-74
2023/02/24 08:19:38;;;;;;;1999.90;999.90;;;;;;;3.14;100.00;97513.69;5088659;28;20039;-75
2023/02/24 08:22:23;;;;;;;1999.90;999.90;;;;;;;3.28;100.00;97511.38;5092661;28;20040;-74
2023/02/24 08:24:59;;;;;;;1999.90;999.90;;;;;;;3.49;100.00;97519.34;5092679;28;20064;-74
2023/02/24 08:27:32;;;;;;;1999.90;999.90;;;;;;;3.62;100.00;97518.06;5092610;28;20114;-74
2023/02/24 08:30:00;;;;;;;1999.90;999.90;;;;;;;3.84;100.00;97509.81;5093268;28;20068;-74
2023/02/24 08:32:35;;;;;;;1999.90;999.90;;;;;;;3.83;100.00;97519.81;5092486;28;20052;-73
2023/02/24 08:35:02;;;;;;;;;;;;;;;3.79;100.00;97516.81;5094304;28;20092;-73
2023/02/24 08:37:38;;;;;;;1999.90;999.90;;;;;;;3.73;100.00;97512.44;5094439;28;20413;-74
2023/02/24 08:40:04;;;;;;;;;;;;;;;3.82;100.00;97520.09;5094841;28;20393;-74
2023/02/24 08:42:33;;;;;;;;;;;;;;;3.94;100.00;97509.84;5094013;28;19912;-74
2023/02/24 08:45:00;;;;;;;1999.90;999.90;;;;;;;4.07;100.00;97515.56;5092228;28;19930;-74
2023/02/24 08:47:29;;;;;;;1999.90;999.90;;;;;;;4.24;100.00;97515.38;5092234;28;20070;-74
2023/02/24 08:50:00;;;;;;;1999.90;999.90;;;;;;;4.27;100.00;97506.72;5091969;28;20060;-74
2023/02/24 08:52:26;;;;;;;1999.90;999.90;;;;;;;4.39;100.00;97517.31;5092126;28;20032;-72
2023/02/24 08:54:57;;;;;;;1999.90;999.90;;;;;;;4.57;100.00;97512.25;5086712;28;20392;-73
2023/02/24 08:57:25;;;;;;;1999.90;999.90;;;;;;;4.62;100.00;97508.72;5090915;28;20035;-74
2023/02/24 08:59:56;;;;;;;1999.90;999.90;;;;;;;4.89;100.00;97508.50;5091639;28;20119;-73
2023/02/24 09:02:26;;;;;;;1999.90;999.90;;;;;;;5.10;100.00;97508.22;5091238;28;20039;-74
2023/02/24 09:05:09;;;;;;;1999.90;999.90;;;;;;;5.70;100.00;97498.38;5091114;28;20023;-73
2023/02/24 09:07:37;;;;;;;1999.90;999.90;;;;;;;6.35;100.00;97495.47;5091116;28;20036;-72
2023/02/24 09:10:10;;;;;;;1999.90;999.90;;;;;;;7.41;100.00;97500.13;5091144;28;20032;-73
2023/02/24 09:12:40;;;;;;;1999.90;999.90;;;;;;;8.75;100.00;97501.84;5091322;28;20116;-74
2023/02/24 09:15:08;;;;;;;1999.90;999.90;;;;;;;9.61;100.00;97491.19;5091070;28;20062;-74
2023/02/24 09:22:59;;;;;;;1999.90;999.90;;;;;;;10.20;100.00;97486.78;5090961;28;20038;-73
2023/02/24 09:25:39;;;;;;;1999.90;999.90;;;;;;;10.26;100.00;97501.16;5091564;28;20424;-72
2023/02/24 09:28:16;;;;;;;1999.90;999.90;;;;;;;10.08;100.00;97491.94;5091204;28;20111;-73
2023/02/24 09:31:08;;;;;;;1999.90;999.90;;;;;;;10.13;100.00;97500.88;5091158;28;20493;-74
2023/02/24 09:33:38;;;;;;;1999.90;999.90;;;;;;;10.32;100.00;97508.13;5086497;28;20119;-76
2023/02/24 09:36:09;;;;;;;1999.90;999.90;;;;;;;10.35;100.00;97502.88;5091458;28;20028;-75
2023/02/24 09:39:08;;;;;;;1999.90;999.90;;;;;;;10.31;100.00;97503.78;5091302;28;20020;-74
2023/02/24 09:44:32;;;;;;;1999.90;999.90;;;;;;;9.22;100.00;97496.19;5091132;28;20054;-75
2023/02/24 09:47:38;;;;;;;1999.90;999.90;;;;;;;8.72;100.00;97491.53;5091012;28;20031;-74
2023/02/24 09:50:12;;;;;;;1999.90;999.90;;;;;;;8.29;100.00;97494.28;5088587;28;20473;-74
2023/02/24 09:52:40;;;;;;;1999.90;999.90;;;;;;;7.80;100.00;97475.50;5091093;28;20020;-74
2023/02/24 09:55:29;;;;;;;1999.90;999.90;;;;;;;7.53;100.00;97488.84;5089728;28;20032;-74
2023/02/24 10:00:56;;;;;;;1999.90;999.90;;;;;;;7.11;100.00;97478.63;5091385;28;20043;-75
2023/02/24 10:03:41;;;;;;;1999.90;999.90;;;;;;;7.24;100.00;97480.69;5092997;28;20028;-75
2023/02/24 10:06:24;;;;;;;1999.90;999.90;;;;;;;7.24;100.00;97482.59;5092061;28;20038;-76
2023/02/24 10:08:58;;;;;;;1999.90;999.90;;;;;;;7.45;100.00;97484.88;5095891;28;20281;-75
2023/02/24 10:11:31;;;;;;;1999.90;999.90;;;;;;;7.40;100.00;97476.72;5090213;28;20109;-75
2023/02/24 10:14:01;;;;;;;1999.90;999.90;;;;;;;7.39;100.00;97474.31;5090753;28;20032;-74
2023/02/24 10:16:40;;;;;;;1999.90;999.90;;;;;;;7.42;100.00;97469.06;5090641;28;20060;-75
2023/02/24 10:19:23;;;;;;;1999.90;999.90;;;;;;;7.45;100.00;97467.72;5090490;28;20518;-74
2023/02/24 10:22:01;;;;;;;1999.90;999.90;;;;;;;7.42;100.00;97469.06;5090881;28;20484;-75
2023/02/24 10:24:47;;;;;;;1999.90;999.90;;;;;;;7.45;100.00;97463.09;5091213;28;20028;-75
2023/02/24 10:27:22;;;;;;;;;;;;;;;7.55;100.00;97460.25;5089967;28;20032;-74
2023/02/24 10:30:26;;;;;;;1999.90;999.90;;;;;;;7.53;100.00;97446.13;5090959;28;20372;-74
2023/02/24 10:32:59;;;;;;;1999.90;999.90;;;;;;;7.43;100.00;97448.13;5091279;28;20028;-74
2023/02/24 10:35:32;;;;;;;1999.90;999.90;;;;;;;7.64;100.00;97449.56;5091219;28;20039;-76
2023/02/24 10:38:04;;;;;;;1999.90;999.90;;;;;;;7.61;100.00;97438.44;5090631;28;20043;-77
2023/02/24 10:40:55;;;;;;;1999.90;999.90;;;;;;;7.48;100.00;97446.19;5090576;28;20027;-75
2023/02/24 10:43:28;;;;;;;1999.90;999.90;;;;;;;7.37;100.00;97441.94;5089976;28;20043;-75
2023/02/24 10:46:04;;;;;;;1999.90;999.90;;;;;;;7.36;100.00;97423.19;5091061;28;20031;-74
2023/02/24 10:48:37;;;;;;;1999.90;999.90;;;;;;;7.16;100.00;97432.34;5090657;28;20488;-75
2023/02/24 10:51:18;;;;;;;1999.90;999.90;;;;;;;7.15;100.00;97424.47;5104217;28;20425;-75
2023/02/24 10:53:52;;;;;;;1999.90;999.90;;;;;;;7.28;100.00;97421.91;5110705;28;20039;-75
2023/02/24 10:56:40;;;;;;;1999.90;999.90;;;;;;;7.28;100.00;97397.41;5109196;28;20027;-75
2023/02/24 11:02:05;;;;;;;1999.90;999.90;;;;;;;7.22;100.00;97398.56;5110625;28;20089;-75
2023/02/24 11:05:03;;;;;;;1999.90;999.90;;;;;;;7.23;100.00;97394.75;5110694;28;20019;-75
2023/02/24 11:07:44;;;;;;;1999.90;999.90;;;;;;;7.39;100.00;97382.59;5110380;27;20028;-75
2023/02/24 11:10:25;;;;;;;1999.90;999.90;;;;;;;7.47;100.00;97401.03;5110542;28;20092;-75
2023/02/24 11:18:30;;;;;;;1999.90;999.90;;;;;;;7.70;100.00;97355.03;5111191;28;20459;-74
2023/02/24 11:20:58;;;;;;;1999.90;999.90;;;;;;;8.00;100.00;97363.63;5113009;28;20028;-75
2023/02/24 11:23:34;;;;;;;1999.90;999.90;;;;;;;8.15;100.00;97368.03;5114059;28;20028;-74
2023/02/24 11:26:10;;;;;;;1999.90;999.90;;;;;;;8.24;100.00;97341.75;5114366;27;20043;-75
2023/02/24 11:28:42;;;;;;;1999.90;999.90;;;;;;;8.61;100.00;97360.81;5114370;28;20023;-75
2023/02/24 11:31:31;;;;;;;1999.90;999.90;;;;;;;8.86;100.00;97356.88;5115318;28;20484;-74
2023/02/24 11:34:20;;;;;;;1999.90;999.90;;;;;;;9.07;100.00;97341.78;5113941;28;20035;-75
2023/02/24 11:37:19;;;;;;;1999.90;999.90;;;;;;;9.39;100.00;97335.44;5114979;28;20024;-76
2023/02/24 11:39:56;;;;;;;1999.90;999.90;;;;;;;9.60;100.00;97336.66;5080429;28;20059;-75
2023/02/24 11:42:26;;;;;;;1999.90;999.90;;;;;;;9.97;100.00;97329.31;5112700;28;20035;-75
2023/02/24 11:45:05;;;;;;;1999.90;999.90;;;;;;;9.83;100.00;97320.34;5114688;28;20030;-75
2023/02/24 11:47:41;;;;;;;1999.90;999.90;;;;;;;9.76;100.00;97328.13;5115014;28;20114;-76